Andes, New York
Current Conditions -  °F | °C
As of 3:15 PM on Sunday 25 Jan 2015 (Local Time) from KMSV Reporting Station
Clear Clear  
Wind Chill: 16°   Ceiling: Unl
Heat Index: 27°   Visibility: 10mi
Dew Point:   Wind: 13mph
Humidity: 43%   Direction: 300°WNW
Pressure: 29.78"   Gusts: 21mph
Location:  42.19°N, 74.79°W
Report Text: KMSV 252015Z AUTO 30011G18KT 10SM CLR M03/M14 A2978 RMK AO1
Loading
Personal Weather Stations






























Interactive Weather Map New forecast layout! Learn more

10-Day Weather Forecast

Advertisements
Track Severe Weather on mobile